sensor_id;sensor_type;location;lat;lon;timestamp;pressure;altitude;pressure_sealevel;temperature;humidity
27304;BME280;14791;52.392;13.092;2023-05-18T00:00:22;102247.91;;;15.17;35.20
27304;BME280;14791;52.392;13.092;2023-05-18T00:02:51;102255.12;;;15.17;35.23
27304;BME280;14791;52.392;13.092;2023-05-18T00:05:20;102257.02;;;15.15;35.26
27304;BME280;14791;52.392;13.092;2023-05-18T00:07:51;102262.03;;;15.14;35.33
27304;BME280;14791;52.392;13.092;2023-05-18T00:10:20;102256.23;;;15.13;35.34
27304;BME280;14791;52.392;13.092;2023-05-18T00:12:49;102255.45;;;15.10;35.38
27304;BME280;14791;52.392;13.092;2023-05-18T00:15:18;102260.45;;;15.09;35.45
27304;BME280;14791;52.392;13.092;2023-05-18T00:17:49;102262.77;;;15.08;35.49
27304;BME280;14791;52.392;13.092;2023-05-18T00:20:19;102263.70;;;15.07;35.52
27304;BME280;14791;52.392;13.092;2023-05-18T00:22:49;102251.17;;;14.99;35.56
27304;BME280;14791;52.392;13.092;2023-05-18T00:25:17;102260.64;;;15.06;35.62
27304;BME280;14791;52.392;13.092;2023-05-18T00:27:46;102266.47;;;15.06;35.65
27304;BME280;14791;52.392;13.092;2023-05-18T00:30:18;102266.09;;;15.05;35.70
27304;BME280;14791;52.392;13.092;2023-05-18T00:32:47;102246.13;;;14.93;35.75
27304;BME280;14791;52.392;13.092;2023-05-18T00:35:16;102264.83;;;15.03;35.82
27304;BME280;14791;52.392;13.092;2023-05-18T00:37:45;102265.80;;;15.02;35.91
27304;BME280;14791;52.392;13.092;2023-05-18T00:40:14;102266.28;;;15.02;35.94
27304;BME280;14791;52.392;13.092;2023-05-18T00:42:43;102270.39;;;15.00;35.98
27304;BME280;14791;52.392;13.092;2023-05-18T00:45:12;102273.49;;;15.01;36.03
27304;BME280;14791;52.392;13.092;2023-05-18T00:47:41;102273.08;;;15.00;36.08
27304;BME280;14791;52.392;13.092;2023-05-18T00:50:10;102266.43;;;14.99;36.15
27304;BME280;14791;52.392;13.092;2023-05-18T00:52:40;102272.30;;;14.98;36.13
27304;BME280;14791;52.392;13.092;2023-05-18T00:55:09;102278.64;;;14.97;36.21
27304;BME280;14791;52.392;13.092;2023-05-18T00:57:40;102276.89;;;14.96;36.29
27304;BME280;14791;52.392;13.092;2023-05-18T01:00:11;102275.55;;;14.96;36.30
27304;BME280;14791;52.392;13.092;2023-05-18T01:02:41;102275.72;;;14.93;36.37
27304;BME280;14791;52.392;13.092;2023-05-18T01:05:12;102280.24;;;14.93;36.41
27304;BME280;14791;52.392;13.092;2023-05-18T01:07:41;102281.66;;;14.91;36.44
27304;BME280;14791;52.392;13.092;2023-05-18T01:10:13;102286.66;;;14.90;36.51
27304;BME280;14791;52.392;13.092;2023-05-18T01:13:01;102288.94;;;14.89;36.54
27304;BME280;14791;52.392;13.092;2023-05-18T01:15:37;102291.26;;;14.88;36.60
27304;BME280;14791;52.392;13.092;2023-05-18T01:18:36;102300.85;;;14.85;36.67
27304;BME280;14791;52.392;13.092;2023-05-18T01:26:16;102297.06;;;14.80;36.84
27304;BME280;14791;52.392;13.092;2023-05-18T01:28:48;102297.06;;;14.80;36.92
27304;BME280;14791;52.392;13.092;2023-05-18T01:31:18;102289.48;;;14.80;37.02
27304;BME280;14791;52.392;13.092;2023-05-18T01:33:47;102291.27;;;14.79;37.11
27304;BME280;14791;52.392;13.092;2023-05-18T01:36:16;102288.69;;;14.78;37.21
27304;BME280;14791;52.392;13.092;2023-05-18T01:38:45;102297.31;;;14.76;37.28
27304;BME280;14791;52.392;13.092;2023-05-18T01:41:25;102295.56;;;14.75;37.33
27304;BME280;14791;52.392;13.092;2023-05-18T01:46:59;102293.91;;;14.72;37.33
27304;BME280;14791;52.392;13.092;2023-05-18T01:49:38;102292.66;;;14.71;37.36
27304;BME280;14791;52.392;13.092;2023-05-18T01:51:51;102300.50;;;14.66;37.39
27304;BME280;14791;52.392;13.092;2023-05-18T01:54:24;102299.33;;;14.63;37.43
27304;BME280;14791;52.392;13.092;2023-05-18T01:56:54;102299.88;;;14.61;37.46
27304;BME280;14791;52.392;13.092;2023-05-18T01:59:25;102301.71;;;14.61;37.51
27304;BME280;14791;52.392;13.092;2023-05-18T02:01:58;102304.40;;;14.61;37.53
27304;BME280;14791;52.392;13.092;2023-05-18T02:04:28;102300.44;;;14.59;37.54
27304;BME280;14791;52.392;13.092;2023-05-18T02:06:57;102304.09;;;14.58;37.58
27304;BME280;14791;52.392;13.092;2023-05-18T02:09:26;102310.50;;;14.56;37.63
27304;BME280;14791;52.392;13.092;2023-05-18T02:11:55;102310.58;;;14.54;37.74
27304;BME280;14791;52.392;13.092;2023-05-18T02:14:25;102311.05;;;14.54;37.85
27304;BME280;14791;52.392;13.092;2023-05-18T02:16:54;102307.06;;;14.52;37.93
27304;BME280;14791;52.392;13.092;2023-05-18T02:19:26;102313.85;;;14.51;38.02
27304;BME280;14791;52.392;13.092;2023-05-18T02:21:55;102311.27;;;14.49;38.01
27304;BME280;14791;52.392;13.092;2023-05-18T02:24:24;102318.06;;;14.47;38.01
27304;BME280;14791;52.392;13.092;2023-05-18T02:26:53;102311.89;;;14.45;38.04
27304;BME280;14791;52.392;13.092;2023-05-18T02:29:22;102313.41;;;14.42;38.08
27304;BME280;14791;52.392;13.092;2023-05-18T02:31:51;102314.03;;;14.39;38.10
27304;BME280;14791;52.392;13.092;2023-05-18T02:34:20;102310.95;;;14.38;38.16
27304;BME280;14791;52.392;13.092;2023-05-18T02:36:51;102313.41;;;14.34;38.19
27304;BME280;14791;52.392;13.092;2023-05-18T02:39:20;102313.95;;;14.32;38.26
27304;BME280;14791;52.392;13.092;2023-05-18T02:41:49;102315.88;;;14.30;38.36
27304;BME280;14791;52.392;13.092;2023-05-18T02:44:18;102316.91;;;14.27;38.45
27304;BME280;14791;52.392;13.092;2023-05-18T02:46:50;102305.36;;;14.16;38.59
27304;BME280;14791;52.392;13.092;2023-05-18T02:49:19;102316.84;;;14.20;38.62
27304;BME280;14791;52.392;13.092;2023-05-18T02:51:48;102322.34;;;14.17;38.72
27304;BME280;14791;52.392;13.092;2023-05-18T02:54:17;102325.58;;;14.15;38.85
27304;BME280;14791;52.392;13.092;2023-05-18T02:56:46;102323.55;;;14.11;38.95
27304;BME280;14791;52.392;13.092;2023-05-18T02:59:20;102333.98;;;14.09;39.05
27304;BME280;14791;52.392;13.092;2023-05-18T03:01:49;102324.64;;;14.07;39.10
27304;BME280;14791;52.392;13.092;2023-05-18T03:04:18;102327.02;;;14.04;39.13
27304;BME280;14791;52.392;13.092;2023-05-18T03:06:50;102326.15;;;14.04;39.21
27304;BME280;14791;52.392;13.092;2023-05-18T03:09:20;102330.25;;;14.02;39.19
27304;BME280;14791;52.392;13.092;2023-05-18T03:11:50;102330.34;;;14.01;39.18
27304;BME280;14791;52.392;13.092;2023-05-18T03:14:20;102327.66;;;14.01;39.17
27304;BME280;14791;52.392;13.092;2023-05-18T03:16:52;102328.20;;;13.99;39.16
27304;BME280;14791;52.392;13.092;2023-05-18T03:19:23;102336.75;;;13.98;39.16
27304;BME280;14791;52.392;13.092;2023-05-18T03:21:54;102335.84;;;13.98;39.14
27304;BME280;14791;52.392;13.092;2023-05-18T03:24:24;102336.81;;;13.97;39.08
27304;BME280;14791;52.392;13.092;2023-05-18T03:26:55;102330.64;;;13.95;39.03
27304;BME280;14791;52.392;13.092;2023-05-18T03:29:24;102338.32;;;13.94;39.01
27304;BME280;14791;52.392;13.092;2023-05-18T03:31:53;102336.98;;;13.94;39.07
27304;BME280;14791;52.392;13.092;2023-05-18T03:34:22;102332.53;;;13.93;39.17
27304;BME280;14791;52.392;13.092;2023-05-18T03:36:52;102338.86;;;13.92;39.21
27304;BME280;14791;52.392;13.092;2023-05-18T03:39:21;102332.63;;;13.91;39.36
27304;BME280;14791;52.392;13.092;2023-05-18T03:41:50;102335.31;;;13.91;39.51
27304;BME280;14791;52.392;13.092;2023-05-18T03:44:20;102343.44;;;13.90;39.61
27304;BME280;14791;52.392;13.092;2023-05-18T03:46:49;102339.03;;;13.89;39.70
27304;BME280;14791;52.392;13.092;2023-05-18T03:49:18;102339.95;;;13.88;39.80
27304;BME280;14791;52.392;13.092;2023-05-18T03:51:48;102336.89;;;13.87;39.84
27304;BME280;14791;52.392;13.092;2023-05-18T03:54:17;102339.95;;;13.88;39.86
27304;BME280;14791;52.392;13.092;2023-05-18T03:56:46;102340.82;;;13.88;39.87
27304;BME280;14791;52.392;13.092;2023-05-18T03:59:15;102340.38;;;13.89;39.84
27304;BME280;14791;52.392;13.092;2023-05-18T04:01:44;102344.40;;;13.89;39.87
27304;BME280;14791;52.392;13.092;2023-05-18T04:04:13;102347.95;;;13.89;39.90
27304;BME280;14791;52.392;13.092;2023-05-18T04:06:44;102337.18;;;13.80;39.92
27304;BME280;14791;52.392;13.092;2023-05-18T04:09:13;102355.53;;;13.90;39.91
27304;BME280;14791;52.392;13.092;2023-05-18T04:11:44;102354.56;;;13.91;39.91
27304;BME280;14791;52.392;13.092;2023-05-18T04:14:13;102353.22;;;13.91;39.89
27304;BME280;14791;52.392;13.092;2023-05-18T04:16:45;102358.47;;;13.94;39.91
27304;BME280;14791;52.392;13.092;2023-05-18T04:19:14;102355.30;;;13.94;39.89
27304;BME280;14791;52.392;13.092;2023-05-18T04:21:43;102361.16;;;13.94;39.93
27304;BME280;14791;52.392;13.092;2023-05-18T04:24:14;102365.56;;;13.95;39.96
27304;BME280;14791;52.392;13.092;2023-05-18T04:26:43;102362.88;;;13.95;39.99
27304;BME280;14791;52.392;13.092;2023-05-18T04:29:13;102363.30;;;13.96;39.97
27304;BME280;14791;52.392;13.092;2023-05-18T04:31:42;102368.09;;;13.98;39.95
27304;BME280;14791;52.392;13.092;2023-05-18T04:34:12;102357.50;;;13.95;39.92
27304;BME280;14791;52.392;13.092;2023-05-18T04:36:43;102367.86;;;14.02;39.88
27304;BME280;14791;52.392;13.092;2023-05-18T04:39:13;102370.96;;;14.03;39.87
27304;BME280;14791;52.392;13.092;2023-05-18T04:41:42;102371.28;;;14.06;39.95
27304;BME280;14791;52.392;13.092;2023-05-18T04:44:13;102375.69;;;14.07;39.96
27304;BME280;14791;52.392;13.092;2023-05-18T04:46:42;102384.93;;;14.10;39.97
27304;BME280;14791;52.392;13.092;2023-05-18T04:49:13;102379.81;;;14.14;39.96
27304;BME280;14791;52.392;13.092;2023-05-18T04:51:42;102388.12;;;14.18;39.91
27304;BME280;14791;52.392;13.092;2023-05-18T04:54:13;102388.37;;;14.22;39.88
27304;BME280;14791;52.392;13.092;2023-05-18T04:56:42;102381.07;;;14.24;39.86
27304;BME280;14791;52.392;13.092;2023-05-18T04:59:13;102387.66;;;14.28;39.83
27304;BME280;14791;52.392;13.092;2023-05-18T05:01:42;102391.91;;;14.32;39.81
27304;BME280;14791;52.392;13.092;2023-05-18T05:04:12;102390.33;;;14.36;39.78
27304;BME280;14791;52.392;13.092;2023-05-18T05:06:41;102379.81;;;14.32;39.76
27304;BME280;14791;52.392;13.092;2023-05-18T05:09:10;102389.37;;;14.46;39.77
27304;BME280;14791;52.392;13.092;2023-05-18T05:11:41;102385.20;;;14.49;39.74
27304;BME280;14791;52.392;13.092;2023-05-18T05:14:10;102379.66;;;14.52;39.73
27304;BME280;14791;52.392;13.092;2023-05-18T05:16:42;102379.94;;;14.56;39.75
27304;BME280;14791;52.392;13.092;2023-05-18T05:19:11;102382.84;;;14.60;39.77
27304;BME280;14791;52.392;13.092;2023-05-18T05:21:41;102387.11;;;14.64;39.82
27304;BME280;14791;52.392;13.092;2023-05-18T05:24:10;102388.28;;;14.67;39.79
27304;BME280;14791;52.392;13.092;2023-05-18T05:26:38;102392.19;;;14.71;39.76
27304;BME280;14791;52.392;13.092;2023-05-18T05:29:08;102397.77;;;14.75;39.81
27304;BME280;14791;52.392;13.092;2023-05-18T05:31:37;102398.50;;;14.78;39.81
27304;BME280;14791;52.392;13.092;2023-05-18T05:34:08;102391.05;;;14.83;39.77
27304;BME280;14791;52.392;13.092;2023-05-18T05:36:38;102397.52;;;14.88;39.76
27304;BME280;14791;52.392;13.092;2023-05-18T05:39:09;102392.83;;;14.92;39.78
27304;BME280;14791;52.392;13.092;2023-05-18T05:41:38;102403.34;;;14.96;39.72
27304;BME280;14791;52.392;13.092;2023-05-18T05:44:08;102410.73;;;15.01;39.71
27304;BME280;14791;52.392;13.092;2023-05-18T05:46:37;102409.59;;;15.05;39.71
27304;BME280;14791;52.392;13.092;2023-05-18T05:49:06;102414.72;;;15.10;39.65
27304;BME280;14791;52.392;13.092;2023-05-18T05:51:35;102413.99;;;15.15;39.60
27304;BME280;14791;52.392;13.092;2023-05-18T05:54:04;102412.02;;;15.19;39.57
27304;BME280;14791;52.392;13.092;2023-05-18T05:56:34;102409.16;;;15.22;39.50
27304;BME280;14791;52.392;13.092;2023-05-18T05:59:03;102421.09;;;15.25;39.48
27304;BME280;14791;52.392;13.092;2023-05-18T06:01:32;102411.52;;;15.28;39.49
27304;BME280;14791;52.392;13.092;2023-05-18T06:04:01;102418.55;;;15.30;39.49
27304;BME280;14791;52.392;13.092;2023-05-18T06:06:32;102411.09;;;15.36;39.46
27304;BME280;14791;52.392;13.092;2023-05-18T06:09:01;102414.88;;;15.40;39.42
27304;BME280;14791;52.392;13.092;2023-05-18T06:11:31;102408.38;;;15.44;39.42
27304;BME280;14791;52.392;13.092;2023-05-18T06:14:00;102411.68;;;15.49;39.42
27304;BME280;14791;52.392;13.092;2023-05-18T06:16:29;102412.28;;;15.55;39.41
27304;BME280;14791;52.392;13.092;2023-05-18T06:19:00;102410.13;;;15.61;39.29
27304;BME280;14791;52.392;13.092;2023-05-18T06:21:29;102410.80;;;15.65;39.26
27304;BME280;14791;52.392;13.092;2023-05-18T06:23:59;102411.84;;;15.71;39.27
27304;BME280;14791;52.392;13.092;2023-05-18T06:26:45;102415.93;;;15.78;39.24
27304;BME280;14791;52.392;13.092;2023-05-18T06:29:30;102412.30;;;15.86;39.12
27304;BME280;14791;52.392;13.092;2023-05-18T06:32:01;102415.41;;;15.94;39.03
27304;BME280;14791;52.392;13.092;2023-05-18T06:34:38;102416.80;;;16.02;38.99
27304;BME280;14791;52.392;13.092;2023-05-18T06:37:07;102416.94;;;16.07;38.95
27304;BME280;14791;52.392;13.092;2023-05-18T06:39:36;102419.17;;;16.15;38.93
27304;BME280;14791;52.392;13.092;2023-05-18T06:42:05;102426.33;;;16.23;38.88
27304;BME280;14791;52.392;13.092;2023-05-18T06:44:34;102418.75;;;16.30;38.79
27304;BME280;14791;52.392;13.092;2023-05-18T06:47:08;102416.48;;;16.38;38.70
27304;BME280;14791;52.392;13.092;2023-05-18T06:49:37;102418.71;;;16.46;38.62
27304;BME280;14791;52.392;13.092;2023-05-18T06:52:08;102415.47;;;16.55;38.62
27304;BME280;14791;52.392;13.092;2023-05-18T06:54:39;102415.86;;;16.63;38.54
27304;BME280;14791;52.392;13.092;2023-05-18T06:57:10;102418.00;;;16.72;38.44
27304;BME280;14791;52.392;13.092;2023-05-18T06:59:39;102418.53;;;16.79;38.28
27304;BME280;14791;52.392;13.092;2023-05-18T07:02:08;102415.55;;;16.84;38.06
27304;BME280;14791;52.392;13.092;2023-05-18T07:04:37;102414.01;;;16.87;38.03
27304;BME280;14791;52.392;13.092;2023-05-18T07:07:06;102417.00;;;16.89;37.89
27304;BME280;14791;52.392;13.092;2023-05-18T07:09:36;102416.42;;;16.91;37.95
27304;BME280;14791;52.392;13.092;2023-05-18T07:12:05;102415.28;;;16.95;37.97
27304;BME280;14791;52.392;13.092;2023-05-18T07:14:34;102409.11;;;17.00;37.87
27304;BME280;14791;52.392;13.092;2023-05-18T07:17:06;102417.70;;;17.07;37.80
27304;BME280;14791;52.392;13.092;2023-05-18T07:19:41;102413.25;;;17.13;37.73
27304;BME280;14791;52.392;13.092;2023-05-18T07:22:09;102407.84;;;17.20;37.67
27304;BME280;14791;52.392;13.092;2023-05-18T07:24:38;102407.06;;;17.26;37.63
27304;BME280;14791;52.392;13.092;2023-05-18T07:27:09;102409.47;;;17.30;37.41
27304;BME280;14791;52.392;13.092;2023-05-18T07:29:38;102410.16;;;17.34;37.31
27304;BME280;14791;52.392;13.092;2023-05-18T07:32:07;102412.66;;;17.37;37.33
27304;BME280;14791;52.392;13.092;2023-05-18T07:34:36;102404.75;;;17.41;37.29
27304;BME280;14791;52.392;13.092;2023-05-18T07:37:09;102405.81;;;17.46;37.19
27304;BME280;14791;52.392;13.092;2023-05-18T07:39:38;102408.09;;;17.52;37.12
27304;BME280;14791;52.392;13.092;2023-05-18T07:42:08;102409.92;;;17.58;37.11
27304;BME280;14791;52.392;13.092;2023-05-18T07:44:38;102411.07;;;17.61;37.07
27304;BME280;14791;52.392;13.092;2023-05-18T07:47:06;102414.25;;;17.68;36.99
27304;BME280;14791;52.392;13.092;2023-05-18T07:49:35;102416.25;;;17.72;36.81
27304;BME280;14791;52.392;13.092;2023-05-18T07:52:09;102411.61;;;17.74;36.55
27304;BME280;14791;52.392;13.092;2023-05-18T07:54:38;102410.38;;;17.72;36.43
27304;BME280;14791;52.392;13.092;2023-05-18T07:57:09;102410.84;;;17.72;36.29
27304;BME280;14791;52.392;13.092;2023-05-18T07:59:38;102415.67;;;17.74;36.15
27304;BME280;14791;52.392;13.092;2023-05-18T08:02:06;102418.38;;;17.74;35.95
27304;BME280;14791;52.392;13.092;2023-05-18T08:04:38;102420.50;;;17.76;35.95
27304;BME280;14791;52.392;13.092;2023-05-18T08:07:09;102417.13;;;17.79;35.99
27304;BME280;14791;52.392;13.092;2023-05-18T08:09:41;102411.23;;;17.87;35.63
27304;BME280;14791;52.392;13.092;2023-05-18T08:12:11;102412.75;;;17.98;35.49
27304;BME280;14791;52.392;13.092;2023-05-18T08:14:40;102416.56;;;18.09;35.33
27304;BME280;14791;52.392;13.092;2023-05-18T08:17:09;102411.69;;;18.21;35.14
27304;BME280;14791;52.392;13.092;2023-05-18T08:19:40;102409.62;;;18.32;35.03
27304;BME280;14791;52.392;13.092;2023-05-18T08:22:09;102407.55;;;18.35;35.13
27304;BME280;14791;52.392;13.092;2023-05-18T08:24:41;102419.02;;;18.59;35.21
27304;BME280;14791;52.392;13.092;2023-05-18T08:27:10;102423.27;;;18.76;35.22
27304;BME280;14791;52.392;13.092;2023-05-18T08:29:39;102412.63;;;18.93;35.00
27304;BME280;14791;52.392;13.092;2023-05-18T08:32:08;102419.29;;;19.07;34.76
27304;BME280;14791;52.392;13.092;2023-05-18T08:34:41;102417.05;;;19.19;34.63
27304;BME280;14791;52.392;13.092;2023-05-18T08:37:15;102414.05;;;19.29;34.47
27304;BME280;14791;52.392;13.092;2023-05-18T08:39:40;102418.48;;;19.43;34.34
27304;BME280;14791;52.392;13.092;2023-05-18T08:45:39;102417.41;;;19.64;34.28
27304;BME280;14791;52.392;13.092;2023-05-18T08:48:10;102412.45;;;19.76;34.32
27304;BME280;14791;52.392;13.092;2023-05-18T08:50:41;102413.13;;;19.86;34.12
27304;BME280;14791;52.392;13.092;2023-05-18T08:53:12;102415.52;;;19.96;34.07
27304;BME280;14791;52.392;13.092;2023-05-18T08:55:41;102412.87;;;20.07;34.08
27304;BME280;14791;52.392;13.092;2023-05-18T08:58:14;102413.90;;;20.17;33.83
27304;BME280;14791;52.392;13.092;2023-05-18T09:00:44;102413.56;;;20.28;33.73
27304;BME280;14791;52.392;13.092;2023-05-18T09:03:13;102422.60;;;20.34;33.55
27304;BME280;14791;52.392;13.092;2023-05-18T09:05:42;102419.05;;;20.39;33.26
27304;BME280;14791;52.392;13.092;2023-05-18T09:08:11;102416.72;;;20.40;33.07
27304;BME280;14791;52.392;13.092;2023-05-18T09:10:41;102418.80;;;20.42;33.03
27304;BME280;14791;52.392;13.092;2023-05-18T09:13:10;102429.44;;;20.45;33.02
27304;BME280;14791;52.392;13.092;2023-05-18T09:15:40;102423.16;;;20.50;32.96
27304;BME280;14791;52.392;13.092;2023-05-18T09:18:09;102417.27;;;20.56;33.16
27304;BME280;14791;52.392;13.092;2023-05-18T09:20:38;102420.98;;;20.61;32.86
27304;BME280;14791;52.392;13.092;2023-05-18T09:23:07;102419.52;;;20.68;32.60
27304;BME280;14791;52.392;13.092;2023-05-18T09:25:44;102424.23;;;20.72;32.41
27304;BME280;14791;52.392;13.092;2023-05-18T09:28:21;102406.34;;;20.75;32.25
27304;BME280;14791;52.392;13.092;2023-05-18T09:30:44;102402.66;;;20.76;32.20
27304;BME280;14791;52.392;13.092;2023-05-18T09:33:19;102401.66;;;20.77;32.18
27304;BME280;14791;52.392;13.092;2023-05-18T09:35:51;102403.16;;;20.81;32.29
27304;BME280;14791;52.392;13.092;2023-05-18T09:38:24;102393.28;;;20.86;32.34
27304;BME280;14791;52.392;13.092;2023-05-18T09:40:54;102396.75;;;20.93;32.02
27304;BME280;14791;52.392;13.092;2023-05-18T09:43:23;102393.16;;;20.98;31.92
27304;BME280;14791;52.392;13.092;2023-05-18T09:45:52;102392.91;;;21.01;31.99
27304;BME280;14791;52.392;13.092;2023-05-18T09:48:21;102394.40;;;21.06;32.03
27304;BME280;14791;52.392;13.092;2023-05-18T09:50:50;102394.14;;;21.09;31.95
27304;BME280;14791;52.392;13.092;2023-05-18T09:53:19;102395.64;;;21.13;31.93
27304;BME280;14791;52.392;13.092;2023-05-18T09:55:49;102400.07;;;21.14;31.70
27304;BME280;14791;52.392;13.092;2023-05-18T09:58:18;102399.72;;;21.13;31.66
27304;BME280;14791;52.392;13.092;2023-05-18T10:00:48;102394.28;;;21.13;31.58
27304;BME280;14791;52.392;13.092;2023-05-18T10:03:23;102400.22;;;21.12;31.53
27304;BME280;14791;52.392;13.092;2023-05-18T10:05:52;102396.14;;;21.12;31.47
27304;BME280;14791;52.392;13.092;2023-05-18T10:08:21;102394.28;;;21.13;31.39
27304;BME280;14791;52.392;13.092;2023-05-18T10:10:50;102388.23;;;21.15;31.48
27304;BME280;14791;52.392;13.092;2023-05-18T10:13:19;102391.33;;;21.21;31.64
27304;BME280;14791;52.392;13.092;2023-05-18T10:15:54;102384.14;;;21.32;31.70
27304;BME280;14791;52.392;13.092;2023-05-18T10:18:24;102383.17;;;21.44;31.47
27304;BME280;14791;52.392;13.092;2023-05-18T10:21:01;102381.06;;;21.53;31.34
27304;BME280;14791;52.392;13.092;2023-05-18T10:23:27;102384.85;;;21.62;31.13
27304;BME280;14791;52.392;13.092;2023-05-18T10:25:58;102369.67;;;21.65;30.90
27304;BME280;14791;52.392;13.092;2023-05-18T10:28:40;102372.47;;;21.69;30.85
27304;BME280;14791;52.392;13.092;2023-05-18T10:31:08;102369.14;;;21.71;30.83
27304;BME280;14791;52.392;13.092;2023-05-18T10:33:37;102368.90;;;21.69;30.82
27304;BME280;14791;52.392;13.092;2023-05-18T10:36:07;102370.76;;;21.68;30.67
27304;BME280;14791;52.392;13.092;2023-05-18T10:38:37;102368.66;;;21.66;30.53
27304;BME280;14791;52.392;13.092;2023-05-18T10:41:11;102367.92;;;21.64;30.52
27304;BME280;14791;52.392;13.092;2023-05-18T10:43:41;102363.48;;;21.63;30.59
27304;BME280;14791;52.392;13.092;2023-05-18T10:46:11;102360.89;;;21.67;30.58
27304;BME280;14791;52.392;13.092;2023-05-18T10:48:44;102355.92;;;21.72;30.49
27304;BME280;14791;52.392;13.092;2023-05-18T10:51:15;102365.17;;;21.75;30.43
27304;BME280;14791;52.392;13.092;2023-05-18T10:53:45;102361.72;;;21.79;30.36
27304;BME280;14791;52.392;13.092;2023-05-18T10:56:17;102357.23;;;21.83;30.34
27304;BME280;14791;52.392;13.092;2023-05-18T10:58:47;102357.97;;;21.85;30.35
27304;BME280;14791;52.392;13.092;2023-05-18T11:01:16;102345.84;;;21.90;30.21
27304;BME280;14791;52.392;13.092;2023-05-18T11:03:47;102350.78;;;21.96;30.26
27304;BME280;14791;52.392;13.092;2023-05-18T11:06:22;102348.37;;;22.02;30.14
27304;BME280;14791;52.392;13.092;2023-05-18T11:08:50;102340.44;;;22.11;30.11
27304;BME280;14791;52.392;13.092;2023-05-18T11:11:23;102344.60;;;22.15;29.86
27304;BME280;14791;52.392;13.092;2023-05-18T11:14:00;102339.03;;;22.16;29.66
27304;BME280;14791;52.392;13.092;2023-05-18T11:16:33;102342.38;;;22.14;29.63
27304;BME280;14791;52.392;13.092;2023-05-18T11:19:06;102343.39;;;22.13;29.53
27304;BME280;14791;52.392;13.092;2023-05-18T11:24:32;102337.33;;;22.15;29.60
27304;BME280;14791;52.392;13.092;2023-05-18T11:27:13;102339.66;;;22.20;29.51
27304;BME280;14791;52.392;13.092;2023-05-18T11:29:43;102344.98;;;22.21;29.55
27304;BME280;14791;52.392;13.092;2023-05-18T11:32:25;102344.47;;;22.22;29.51
27304;BME280;14791;52.392;13.092;2023-05-18T11:34:59;102339.64;;;22.25;29.34
27304;BME280;14791;52.392;13.092;2023-05-18T11:40:42;102334.94;;;22.27;29.10
27304;BME280;14791;52.392;13.092;2023-05-18T11:42:42;102340.96;;;22.31;29.10
27304;BME280;14791;52.392;13.092;2023-05-18T11:45:13;102338.23;;;22.37;28.96
27304;BME280;14791;52.392;13.092;2023-05-18T11:47:43;102336.82;;;22.42;28.90
27304;BME280;14791;52.392;13.092;2023-05-18T11:50:12;102335.90;;;22.53;29.05
27304;BME280;14791;52.392;13.092;2023-05-18T11:52:46;102325.52;;;22.68;28.93
27304;BME280;14791;52.392;13.092;2023-05-18T11:55:16;102324.23;;;22.87;29.26
27304;BME280;14791;52.392;13.092;2023-05-18T11:57:52;102324.56;;;23.09;29.11
27304;BME280;14791;52.392;13.092;2023-05-18T12:00:22;102332.16;;;23.31;28.87
27304;BME280;14791;52.392;13.092;2023-05-18T12:02:52;102333.43;;;23.52;28.77
27304;BME280;14791;52.392;13.092;2023-05-18T12:05:22;102329.82;;;23.76;28.55
27304;BME280;14791;52.392;13.092;2023-05-18T12:07:52;102325.94;;;23.98;28.21
27304;BME280;14791;52.392;13.092;2023-05-18T12:10:21;102322.84;;;24.17;27.95
27304;BME280;14791;52.392;13.092;2023-05-18T12:12:52;102318.22;;;24.27;27.57
27304;BME280;14791;52.392;13.092;2023-05-18T12:15:22;102313.86;;;24.30;27.53
27304;BME280;14791;52.392;13.092;2023-05-18T12:17:52;102324.97;;;24.43;27.60
27304;BME280;14791;52.392;13.092;2023-05-18T12:20:22;102321.97;;;24.69;27.85
27304;BME280;14791;52.392;13.092;2023-05-18T12:22:56;102320.77;;;25.09;27.75
27304;BME280;14791;52.392;13.092;2023-05-18T12:25:26;102322.61;;;25.46;27.55
27304;BME280;14791;52.392;13.092;2023-05-18T12:27:55;102320.56;;;25.80;27.06
27304;BME280;14791;52.392;13.092;2023-05-18T12:30:26;102324.33;;;26.15;26.70
27304;BME280;14791;52.392;13.092;2023-05-18T12:33:02;102311.52;;;26.45;26.55
27304;BME280;14791;52.392;13.092;2023-05-18T12:35:31;102312.78;;;26.81;26.50
27304;BME280;14791;52.392;13.092;2023-05-18T12:38:00;102303.74;;;27.23;26.18
27304;BME280;14791;52.392;13.092;2023-05-18T12:40:36;102308.98;;;27.63;25.80
27304;BME280;14791;52.392;13.092;2023-05-18T12:43:15;102308.84;;;28.06;25.58
27304;BME280;14791;52.392;13.092;2023-05-18T12:45:44;102318.41;;;28.63;25.52
27304;BME280;14791;52.392;13.092;2023-05-18T12:48:13;102310.63;;;29.26;25.30
27304;BME280;14791;52.392;13.092;2023-05-18T12:50:47;102317.78;;;29.90;24.79
27304;BME280;14791;52.392;13.092;2023-05-18T12:53:17;102308.69;;;30.61;24.71
27304;BME280;14791;52.392;13.092;2023-05-18T12:55:57;102309.61;;;31.28;23.87
27304;BME280;14791;52.392;13.092;2023-05-18T12:58:26;102309.48;;;31.83;23.16
27304;BME280;14791;52.392;13.092;2023-05-18T13:00:55;102311.14;;;32.27;23.15
27304;BME280;14791;52.392;13.092;2023-05-18T13:03:24;102309.05;;;32.57;22.25
27304;BME280;14791;52.392;13.092;2023-05-18T13:06:07;102311.39;;;32.78;21.63
27304;BME280;14791;52.392;13.092;2023-05-18T13:08:36;102301.25;;;32.92;21.10
27304;BME280;14791;52.392;13.092;2023-05-18T13:11:07;102301.02;;;32.87;20.91
27304;BME280;14791;52.392;13.092;2023-05-18T13:13:38;102307.81;;;32.84;20.99